Karelia II — UFMR — position and weather

sailwx.info

Track history (hours):
 
Tides and Currents Weather Stations Pressure Air Temp Water Temp Dewpoint Dewpoint Depression Visibility Wind Speed Wind Dir Waves Ship Positions

Karelia II

Last reported at 2017-Jan-23 21:29 UTC. Time now 2017-Jan-24 05:09 UTC.
Position N 70°56' E 017°12'.

Length 60 m; draft 7.7 m.

Type: Fishing. MMSI: 273425330.

Date/timePositionNaut miles runAvg speedWind from/ knotsBaromVisibWave heightAir tempDewpointWater temp
2017-Jan-23 21:29N 70°56' E 017°12'4 4.1
2017-Jan-23 20:34N 70°52' E 017°15'5 4.6
2017-Jan-23 19:34N 70°48' E 017°13'2 1.6
2017-Jan-23 18:33N 70°47' E 017°08'2 1.7
2017-Jan-23 17:33N 70°46' E 017°11'11 1.2
2017-Jan-23 08:33N 70°35' E 017°20'3 3.4
2017-Jan-23 07:33N 70°32' E 017°15'4 3.7
2017-Jan-23 06:33N 70°29' E 017°13'4 3.6
2017-Jan-23 05:33N 70°25' E 017°11'3 3.4
2017-Jan-23 04:33N 70°22' E 017°12'3 2.6
2017-Jan-23 03:33N 70°19' E 017°13'6 6.4
2017-Jan-23 02:33N 70°25' E 017°08'3 3.1
2017-Jan-23 01:33N 70°22' E 017°11'3 3.2
2017-Jan-23 00:33N 70°19' E 017°10'1 1.1
2017-Jan-22 23:33N 70°20' E 017°13'1010.1
2017-Jan-22 22:34N 70°30' E 017°07'2 2.3
2017-Jan-22 21:33N 70°28' E 017°08'3 3.4
2017-Jan-22 20:33N 70°24' E 017°09'4 3.7
2017-Jan-22 19:33N 70°21' E 017°11'5 3.3
2017-Jan-22 18:06N 70°16' E 017°08'2 3.8
2017-Jan-22 17:33N 70°14' E 017°08'6 5.6
2017-Jan-22 16:32N 70°15' E 017°25'1211.5
2017-Jan-22 15:29N 70°20' E 017°57'  
Track history (hours):
 
Tides and Currents Weather Stations Pressure Air Temp Water Temp Dewpoint Dewpoint Depression Visibility Wind Speed Wind Dir Waves Ship Positions

Karelia II

Last reported at 2017-Jan-23 21:29 UTC. Time now 2017-Jan-24 05:09 UTC.
Position N 70°56' E 017°12'.

Length 60 m; draft 7.7 m.

Type: Fishing. MMSI: 273425330.

Date/timePositionNaut miles runAvg speedWind from/ knotsBaromVisibWave heightAir tempDewpointWater temp
2017-Jan-23 21:29N 70°56' E 017°12'4 4.1
2017-Jan-23 20:34N 70°52' E 017°15'5 4.6
2017-Jan-23 19:34N 70°48' E 017°13'2 1.6
2017-Jan-23 18:33N 70°47' E 017°08'2 1.7
2017-Jan-23 17:33N 70°46' E 017°11'11 1.2
2017-Jan-23 08:33N 70°35' E 017°20'3 3.4
2017-Jan-23 07:33N 70°32' E 017°15'4 3.7
2017-Jan-23 06:33N 70°29' E 017°13'4 3.6
2017-Jan-23 05:33N 70°25' E 017°11'3 3.4
2017-Jan-23 04:33N 70°22' E 017°12'3 2.6
2017-Jan-23 03:33N 70°19' E 017°13'6 6.4
2017-Jan-23 02:33N 70°25' E 017°08'3 3.1
2017-Jan-23 01:33N 70°22' E 017°11'3 3.2
2017-Jan-23 00:33N 70°19' E 017°10'1 1.1
2017-Jan-22 23:33N 70°20' E 017°13'1010.1
2017-Jan-22 22:34N 70°30' E 017°07'2 2.3
2017-Jan-22 21:33N 70°28' E 017°08'3 3.4
2017-Jan-22 20:33N 70°24' E 017°09'4 3.7
2017-Jan-22 19:33N 70°21' E 017°11'5 3.3
2017-Jan-22 18:06N 70°16' E 017°08'2 3.8
2017-Jan-22 17:33N 70°14' E 017°08'6 5.6
2017-Jan-22 16:32N 70°15' E 017°25'1211.5
2017-Jan-22 15:29N 70°20' E 017°57'  

Dump ship's entire track history